TNCB

Flamingo International Airport

Kralendijk, Caribbean Netherlands
TAF TNCB 212318Z 2200/2306 09013KT 9999 SCT020 SCT025 BECMG 2209/2212 10017G27KT
Issued Valid From Valid To
Jan-21 @ 23:18 UTC
(2 hours ago)
Jan-22 @ 00:00 UTC
(53 minutes ago)
Jan-23 @ 06:00 UTC
(-1 days ago)
Jan-22 @ 00:00 to Jan-22 @ 09:00
TAF TNCB 212318Z 2200/2306 09013KT 9999 SCT020 SCT025
Wind Visibility Clouds
90° at 13 knots 10,000+ meters
  • Scattered at 2,000' AGL
  • Scattered at 2,500' AGL
Becoming Jan-22 @ 09:00 to Jan-23 @ 06:00
BECMG 2209/2212 10017G27KT
Wind Visibility Clouds
100° at 17 knots
 Gusting to 27 knots
10,000+ meters
  • Scattered at 2,000' AGL
  • Scattered at 2,500' AGL
TAF TNCB 212318Z 2200/2306 09013KT 9999 SCT020 SCT025 BECMG 2209/2212 10017G27KT
Issued Jan-21 @ 23:18 UTC
(2 hours ago)
Valid From Jan-22 @ 00:00 UTC
(53 minutes ago)
Valid To Jan-23 @ 06:00 UTC
(-1 days ago)
Jan-22 @ 00:00 - Jan-22 @ 09:00
Wind Visibility
90° at 13 knots 10,000+ meters
Clouds
  • Scattered at 2,000' AGL
  • Scattered at 2,500' AGL
Becoming Jan-22 @ 09:00 - Jan-23 @ 06:00
Wind Visibility
100° at 17 knots
 Gusting to 27 knots
10,000+ meters
Clouds
  • Scattered at 2,000' AGL
  • Scattered at 2,500' AGL